Terminal Aerodrome Forecast
Issued by NWS Melbourne, FL

Home | Current Version | Previous Version | Text Only | Print | Product List | Glossary On
Versions: 1 2 3 4 5 6 7 8 9 10 11 12 13 14 15
519
FTUS42 KMLB 230417 AAB
TAFMLB
TAF AMD
KMLB 230417Z 2304/2324 07009KT P6SM VCSH SCT025 SCT250
      TEMPO 2304/2307 SCT015 BKN025
     FM231400 07011KT P6SM VCSH SCT030 SCT150 BKN250
     FM231700 06012G18KT P6SM VCTS SCT030CB BKN060 BKN250=

USA.gov is the U.S. government's official web portal to all federal, state and local government web resources and services.